sensor_id;sensor_type;location;lat;lon;timestamp;temperature;humidity
1992;DHT22;997;48.448;8.924;2024-02-14T00:02:07;3.90;99.90
1992;DHT22;997;48.448;8.924;2024-02-14T00:04:33;3.90;99.90
1992;DHT22;997;48.448;8.924;2024-02-14T00:06:59;3.70;99.90
1992;DHT22;997;48.448;8.924;2024-02-14T00:09:25;3.60;99.90
1992;DHT22;997;48.448;8.924;2024-02-14T00:11:51;3.50;99.90
1992;DHT22;997;48.448;8.924;2024-02-14T00:14:17;3.40;99.90
1992;DHT22;997;48.448;8.924;2024-02-14T00:16:44;3.40;99.90
1992;DHT22;997;48.448;8.924;2024-02-14T00:19:10;3.50;99.90
1992;DHT22;997;48.448;8.924;2024-02-14T00:21:36;3.50;99.90
1992;DHT22;997;48.448;8.924;2024-02-14T00:24:02;3.50;99.90
1992;DHT22;997;48.448;8.924;2024-02-14T00:26:27;3.50;99.90
1992;DHT22;997;48.448;8.924;2024-02-14T00:28:53;3.50;99.90
1992;DHT22;997;48.448;8.924;2024-02-14T00:31:19;3.40;99.90
1992;DHT22;997;48.448;8.924;2024-02-14T00:33:44;3.50;99.90
1992;DHT22;997;48.448;8.924;2024-02-14T00:36:11;3.50;99.90
1992;DHT22;997;48.448;8.924;2024-02-14T00:38:37;3.50;99.90
1992;DHT22;997;48.448;8.924;2024-02-14T00:41:03;3.60;99.90
1992;DHT22;997;48.448;8.924;2024-02-14T00:43:29;3.60;99.90
1992;DHT22;997;48.448;8.924;2024-02-14T00:45:54;3.60;99.90
1992;DHT22;997;48.448;8.924;2024-02-14T00:48:22;3.70;99.90
1992;DHT22;997;48.448;8.924;2024-02-14T00:50:48;3.70;99.90
1992;DHT22;997;48.448;8.924;2024-02-14T00:53:14;3.80;99.90
1992;DHT22;997;48.448;8.924;2024-02-14T00:55:39;3.80;99.90
1992;DHT22;997;48.448;8.924;2024-02-14T00:58:05;3.90;99.90
1992;DHT22;997;48.448;8.924;2024-02-14T01:00:31;3.90;99.90
1992;DHT22;997;48.448;8.924;2024-02-14T01:02:57;3.90;99.90
1992;DHT22;997;48.448;8.924;2024-02-14T01:05:23;4.00;99.90
1992;DHT22;997;48.448;8.924;2024-02-14T01:07:49;4.00;99.90
1992;DHT22;997;48.448;8.924;2024-02-14T01:10:15;4.00;99.90
1992;DHT22;997;48.448;8.924;2024-02-14T01:12:41;4.10;99.90
1992;DHT22;997;48.448;8.924;2024-02-14T01:15:06;4.00;99.90
1992;DHT22;997;48.448;8.924;2024-02-14T01:17:32;4.00;99.90
1992;DHT22;997;48.448;8.924;2024-02-14T01:20:01;4.10;99.90
1992;DHT22;997;48.448;8.924;2024-02-14T01:22:28;4.20;99.90
1992;DHT22;997;48.448;8.924;2024-02-14T01:24:53;4.30;99.90
1992;DHT22;997;48.448;8.924;2024-02-14T01:27:20;4.40;99.90
1992;DHT22;997;48.448;8.924;2024-02-14T01:29:48;4.60;99.90
1992;DHT22;997;48.448;8.924;2024-02-14T01:32:13;4.60;99.90
1992;DHT22;997;48.448;8.924;2024-02-14T01:34:39;4.70;99.90
1992;DHT22;997;48.448;8.924;2024-02-14T01:37:05;4.80;99.90
1992;DHT22;997;48.448;8.924;2024-02-14T01:39:31;4.80;99.90
1992;DHT22;997;48.448;8.924;2024-02-14T01:41:57;4.60;99.90
1992;DHT22;997;48.448;8.924;2024-02-14T01:44:23;4.60;99.90
1992;DHT22;997;48.448;8.924;2024-02-14T01:46:48;4.50;99.90
1992;DHT22;997;48.448;8.924;2024-02-14T01:49:15;4.40;99.90
1992;DHT22;997;48.448;8.924;2024-02-14T01:51:43;4.40;99.90
1992;DHT22;997;48.448;8.924;2024-02-14T01:54:12;4.40;99.90
1992;DHT22;997;48.448;8.924;2024-02-14T01:56:39;4.50;99.90
1992;DHT22;997;48.448;8.924;2024-02-14T01:59:05;4.60;99.90
1992;DHT22;997;48.448;8.924;2024-02-14T02:01:31;4.70;99.90
1992;DHT22;997;48.448;8.924;2024-02-14T02:03:58;4.70;99.90
1992;DHT22;997;48.448;8.924;2024-02-14T02:06:24;4.80;99.90
1992;DHT22;997;48.448;8.924;2024-02-14T02:08:51;4.80;99.90
1992;DHT22;997;48.448;8.924;2024-02-14T02:11:17;4.90;99.90
1992;DHT22;997;48.448;8.924;2024-02-14T02:13:43;4.90;99.90
1992;DHT22;997;48.448;8.924;2024-02-14T02:16:09;5.00;99.90
1992;DHT22;997;48.448;8.924;2024-02-14T02:18:35;5.10;99.90
1992;DHT22;997;48.448;8.924;2024-02-14T02:21:00;5.20;99.90
1992;DHT22;997;48.448;8.924;2024-02-14T02:23:35;5.20;99.90
1992;DHT22;997;48.448;8.924;2024-02-14T02:26:01;5.20;99.90
1992;DHT22;997;48.448;8.924;2024-02-14T02:28:27;5.20;99.90
1992;DHT22;997;48.448;8.924;2024-02-14T02:30:53;5.10;99.90
1992;DHT22;997;48.448;8.924;2024-02-14T02:33:21;5.30;99.90
1992;DHT22;997;48.448;8.924;2024-02-14T02:35:48;5.40;99.90
1992;DHT22;997;48.448;8.924;2024-02-14T02:38:15;5.40;99.90
1992;DHT22;997;48.448;8.924;2024-02-14T02:40:42;5.40;99.90
1992;DHT22;997;48.448;8.924;2024-02-14T02:43:08;5.40;99.90
1992;DHT22;997;48.448;8.924;2024-02-14T02:45:33;5.40;99.90
1992;DHT22;997;48.448;8.924;2024-02-14T02:47:59;5.50;99.90
1992;DHT22;997;48.448;8.924;2024-02-14T02:50:26;5.50;99.90
1992;DHT22;997;48.448;8.924;2024-02-14T02:52:52;5.50;99.90
1992;DHT22;997;48.448;8.924;2024-02-14T02:55:18;5.60;99.90
1992;DHT22;997;48.448;8.924;2024-02-14T02:57:43;5.50;99.90
1992;DHT22;997;48.448;8.924;2024-02-14T03:00:11;5.50;99.90
1992;DHT22;997;48.448;8.924;2024-02-14T03:02:39;5.50;99.90
1992;DHT22;997;48.448;8.924;2024-02-14T03:05:08;5.50;99.90
1992;DHT22;997;48.448;8.924;2024-02-14T03:07:36;5.50;99.90
1992;DHT22;997;48.448;8.924;2024-02-14T03:10:03;5.60;99.90
1992;DHT22;997;48.448;8.924;2024-02-14T03:12:29;5.60;99.90
1992;DHT22;997;48.448;8.924;2024-02-14T03:14:57;5.70;99.90
1992;DHT22;997;48.448;8.924;2024-02-14T03:17:23;5.70;99.90
1992;DHT22;997;48.448;8.924;2024-02-14T03:19:49;5.70;99.90
1992;DHT22;997;48.448;8.924;2024-02-14T03:22:17;5.70;99.90
1992;DHT22;997;48.448;8.924;2024-02-14T03:24:44;5.60;99.90
1992;DHT22;997;48.448;8.924;2024-02-14T03:27:12;5.60;99.90
1992;DHT22;997;48.448;8.924;2024-02-14T03:29:37;5.50;99.90
1992;DHT22;997;48.448;8.924;2024-02-14T03:32:05;5.40;99.90
1992;DHT22;997;48.448;8.924;2024-02-14T03:34:33;5.40;99.90
1992;DHT22;997;48.448;8.924;2024-02-14T03:37:01;5.30;99.90
1992;DHT22;997;48.448;8.924;2024-02-14T03:39:28;5.30;99.90
1992;DHT22;997;48.448;8.924;2024-02-14T03:41:54;5.30;99.90
1992;DHT22;997;48.448;8.924;2024-02-14T03:44:21;5.20;99.90
1992;DHT22;997;48.448;8.924;2024-02-14T03:46:48;5.20;99.90
1992;DHT22;997;48.448;8.924;2024-02-14T03:49:13;5.20;99.90
1992;DHT22;997;48.448;8.924;2024-02-14T03:51:39;5.10;99.90
1992;DHT22;997;48.448;8.924;2024-02-14T03:54:05;5.10;99.90
1992;DHT22;997;48.448;8.924;2024-02-14T03:56:31;5.00;99.90
1992;DHT22;997;48.448;8.924;2024-02-14T03:58:59;5.00;99.90
1992;DHT22;997;48.448;8.924;2024-02-14T04:01:24;5.00;99.90
1992;DHT22;997;48.448;8.924;2024-02-14T04:03:50;4.90;99.90
1992;DHT22;997;48.448;8.924;2024-02-14T04:06:16;4.90;99.90
1992;DHT22;997;48.448;8.924;2024-02-14T04:08:43;4.90;99.90
1992;DHT22;997;48.448;8.924;2024-02-14T04:11:09;5.00;99.90
1992;DHT22;997;48.448;8.924;2024-02-14T04:13:35;4.90;99.90
1992;DHT22;997;48.448;8.924;2024-02-14T04:16:00;5.00;99.90
1992;DHT22;997;48.448;8.924;2024-02-14T04:18:26;4.90;99.90
1992;DHT22;997;48.448;8.924;2024-02-14T04:20:52;4.90;99.90
1992;DHT22;997;48.448;8.924;2024-02-14T04:23:17;4.90;99.90
1992;DHT22;997;48.448;8.924;2024-02-14T04:25:43;5.00;99.90
1992;DHT22;997;48.448;8.924;2024-02-14T04:28:09;5.10;99.90
1992;DHT22;997;48.448;8.924;2024-02-14T04:30:37;5.30;99.90
1992;DHT22;997;48.448;8.924;2024-02-14T04:33:03;5.40;99.90
1992;DHT22;997;48.448;8.924;2024-02-14T04:35:30;5.60;99.90
1992;DHT22;997;48.448;8.924;2024-02-14T04:37:56;5.60;99.90
1992;DHT22;997;48.448;8.924;2024-02-14T04:40:22;5.60;99.90
1992;DHT22;997;48.448;8.924;2024-02-14T04:42:48;5.60;99.90
1992;DHT22;997;48.448;8.924;2024-02-14T04:45:13;5.70;99.90
1992;DHT22;997;48.448;8.924;2024-02-14T04:47:39;5.80;99.90
1992;DHT22;997;48.448;8.924;2024-02-14T04:50:05;5.70;99.90
1992;DHT22;997;48.448;8.924;2024-02-14T04:52:31;5.80;99.90
1992;DHT22;997;48.448;8.924;2024-02-14T04:54:57;5.90;99.90
1992;DHT22;997;48.448;8.924;2024-02-14T04:57:23;5.70;99.90
1992;DHT22;997;48.448;8.924;2024-02-14T04:59:48;5.60;99.90
1992;DHT22;997;48.448;8.924;2024-02-14T05:02:14;5.50;99.90
1992;DHT22;997;48.448;8.924;2024-02-14T05:04:40;5.50;99.90
1992;DHT22;997;48.448;8.924;2024-02-14T05:07:06;5.40;99.90
1992;DHT22;997;48.448;8.924;2024-02-14T05:09:32;5.40;99.90
1992;DHT22;997;48.448;8.924;2024-02-14T05:11:57;5.30;99.90
1992;DHT22;997;48.448;8.924;2024-02-14T05:14:23;5.30;99.90
1992;DHT22;997;48.448;8.924;2024-02-14T05:16:49;5.10;99.90
1992;DHT22;997;48.448;8.924;2024-02-14T05:19:15;5.00;99.90
1992;DHT22;997;48.448;8.924;2024-02-14T05:21:41;5.00;99.90
1992;DHT22;997;48.448;8.924;2024-02-14T05:24:06;4.90;99.90
1992;DHT22;997;48.448;8.924;2024-02-14T05:26:33;4.70;99.90
1992;DHT22;997;48.448;8.924;2024-02-14T05:28:59;4.70;99.90
1992;DHT22;997;48.448;8.924;2024-02-14T05:31:24;4.70;99.90
1992;DHT22;997;48.448;8.924;2024-02-14T05:33:50;4.70;99.90
1992;DHT22;997;48.448;8.924;2024-02-14T05:36:17;4.80;99.90
1992;DHT22;997;48.448;8.924;2024-02-14T05:38:42;4.90;99.90
1992;DHT22;997;48.448;8.924;2024-02-14T05:41:08;4.90;99.90
1992;DHT22;997;48.448;8.924;2024-02-14T05:43:34;4.90;99.90
1992;DHT22;997;48.448;8.924;2024-02-14T05:46:00;4.90;99.90
1992;DHT22;997;48.448;8.924;2024-02-14T05:48:26;5.00;99.90
1992;DHT22;997;48.448;8.924;2024-02-14T05:50:51;5.00;99.90
1992;DHT22;997;48.448;8.924;2024-02-14T05:53:17;5.00;99.90
1992;DHT22;997;48.448;8.924;2024-02-14T05:55:43;5.00;99.90
1992;DHT22;997;48.448;8.924;2024-02-14T05:58:09;5.00;99.90
1992;DHT22;997;48.448;8.924;2024-02-14T06:00:35;5.20;99.90
1992;DHT22;997;48.448;8.924;2024-02-14T06:03:01;5.30;99.90
1992;DHT22;997;48.448;8.924;2024-02-14T06:05:27;5.30;99.90
1992;DHT22;997;48.448;8.924;2024-02-14T06:07:53;5.30;99.90
1992;DHT22;997;48.448;8.924;2024-02-14T06:10:18;5.30;99.90
1992;DHT22;997;48.448;8.924;2024-02-14T06:12:44;5.40;99.90
1992;DHT22;997;48.448;8.924;2024-02-14T06:15:11;5.40;99.90
1992;DHT22;997;48.448;8.924;2024-02-14T06:17:37;5.60;99.90
1992;DHT22;997;48.448;8.924;2024-02-14T06:20:03;5.60;99.90
1992;DHT22;997;48.448;8.924;2024-02-14T06:22:31;5.60;99.90
1992;DHT22;997;48.448;8.924;2024-02-14T06:24:58;5.60;99.90
1992;DHT22;997;48.448;8.924;2024-02-14T06:27:25;5.70;99.90
1992;DHT22;997;48.448;8.924;2024-02-14T06:29:51;5.70;99.90
1992;DHT22;997;48.448;8.924;2024-02-14T06:32:18;5.60;99.90
1992;DHT22;997;48.448;8.924;2024-02-14T06:34:44;5.60;99.90
1992;DHT22;997;48.448;8.924;2024-02-14T06:37:09;5.60;99.90
1992;DHT22;997;48.448;8.924;2024-02-14T06:39:35;5.60;99.90
1992;DHT22;997;48.448;8.924;2024-02-14T06:42:01;5.70;99.90
1992;DHT22;997;48.448;8.924;2024-02-14T06:44:26;5.80;99.90
1992;DHT22;997;48.448;8.924;2024-02-14T06:46:52;6.00;99.90
1992;DHT22;997;48.448;8.924;2024-02-14T06:49:18;6.10;99.90
1992;DHT22;997;48.448;8.924;2024-02-14T06:51:44;6.20;99.90
1992;DHT22;997;48.448;8.924;2024-02-14T06:54:10;6.30;99.90
1992;DHT22;997;48.448;8.924;2024-02-14T06:56:38;6.30;99.90
1992;DHT22;997;48.448;8.924;2024-02-14T06:59:03;6.50;99.90
1992;DHT22;997;48.448;8.924;2024-02-14T07:01:30;6.60;99.90
1992;DHT22;997;48.448;8.924;2024-02-14T07:03:56;6.60;99.90
1992;DHT22;997;48.448;8.924;2024-02-14T07:06:22;6.70;99.90
1992;DHT22;997;48.448;8.924;2024-02-14T07:08:48;6.80;99.90
1992;DHT22;997;48.448;8.924;2024-02-14T07:11:14;6.90;99.90
1992;DHT22;997;48.448;8.924;2024-02-14T07:13:41;7.00;99.90
1992;DHT22;997;48.448;8.924;2024-02-14T07:16:06;6.90;99.90
1992;DHT22;997;48.448;8.924;2024-02-14T07:18:33;6.90;99.90
1992;DHT22;997;48.448;8.924;2024-02-14T07:20:59;7.00;99.90
1992;DHT22;997;48.448;8.924;2024-02-14T07:23:25;7.00;99.90
1992;DHT22;997;48.448;8.924;2024-02-14T07:25:51;7.20;99.90
1992;DHT22;997;48.448;8.924;2024-02-14T07:28:17;7.20;99.90
1992;DHT22;997;48.448;8.924;2024-02-14T07:30:43;7.20;99.90
1992;DHT22;997;48.448;8.924;2024-02-14T07:33:09;7.20;99.90
1992;DHT22;997;48.448;8.924;2024-02-14T07:35:36;7.10;99.90
1992;DHT22;997;48.448;8.924;2024-02-14T07:38:02;7.20;99.90
1992;DHT22;997;48.448;8.924;2024-02-14T07:40:28;7.20;99.90
1992;DHT22;997;48.448;8.924;2024-02-14T07:42:59;7.10;99.90
1992;DHT22;997;48.448;8.924;2024-02-14T07:45:25;7.10;99.90
1992;DHT22;997;48.448;8.924;2024-02-14T07:47:51;7.00;99.90
1992;DHT22;997;48.448;8.924;2024-02-14T07:50:17;7.00;99.90
1992;DHT22;997;48.448;8.924;2024-02-14T07:52:44;7.10;99.90
1992;DHT22;997;48.448;8.924;2024-02-14T07:55:10;7.00;99.90
1992;DHT22;997;48.448;8.924;2024-02-14T07:57:39;7.00;99.90
1992;DHT22;997;48.448;8.924;2024-02-14T08:00:06;7.10;99.90
1992;DHT22;997;48.448;8.924;2024-02-14T08:02:34;7.10;99.90
1992;DHT22;997;48.448;8.924;2024-02-14T08:04:59;7.20;99.90
1992;DHT22;997;48.448;8.924;2024-02-14T08:07:25;7.30;99.90
1992;DHT22;997;48.448;8.924;2024-02-14T08:09:51;7.40;99.90
1992;DHT22;997;48.448;8.924;2024-02-14T08:12:17;7.50;99.90
1992;DHT22;997;48.448;8.924;2024-02-14T08:14:42;7.60;99.90
1992;DHT22;997;48.448;8.924;2024-02-14T08:17:08;7.80;99.90
1992;DHT22;997;48.448;8.924;2024-02-14T08:19:33;7.90;99.90
1992;DHT22;997;48.448;8.924;2024-02-14T08:22:00;7.90;99.90
1992;DHT22;997;48.448;8.924;2024-02-14T08:24:27;8.00;99.90
1992;DHT22;997;48.448;8.924;2024-02-14T08:26:53;8.20;99.90
1992;DHT22;997;48.448;8.924;2024-02-14T08:29:19;8.30;99.90
1992;DHT22;997;48.448;8.924;2024-02-14T08:31:45;8.40;99.90
1992;DHT22;997;48.448;8.924;2024-02-14T08:34:10;8.50;99.90
1992;DHT22;997;48.448;8.924;2024-02-14T08:36:36;8.60;99.90
1992;DHT22;997;48.448;8.924;2024-02-14T08:39:10;8.80;99.90
1992;DHT22;997;48.448;8.924;2024-02-14T08:41:44;8.80;99.90
1992;DHT22;997;48.448;8.924;2024-02-14T08:44:10;8.70;99.90
1992;DHT22;997;48.448;8.924;2024-02-14T08:46:36;8.70;99.90
1992;DHT22;997;48.448;8.924;2024-02-14T08:49:02;8.80;99.90
1992;DHT22;997;48.448;8.924;2024-02-14T08:51:28;8.90;99.90
1992;DHT22;997;48.448;8.924;2024-02-14T08:53:54;8.80;99.90
1992;DHT22;997;48.448;8.924;2024-02-14T08:56:22;8.70;99.90
1992;DHT22;997;48.448;8.924;2024-02-14T08:58:49;8.70;99.90
1992;DHT22;997;48.448;8.924;2024-02-14T09:01:15;8.90;99.90
1992;DHT22;997;48.448;8.924;2024-02-14T09:03:45;9.00;99.90
1992;DHT22;997;48.448;8.924;2024-02-14T09:06:15;9.00;99.90
1992;DHT22;997;48.448;8.924;2024-02-14T09:08:43;9.10;99.90
1992;DHT22;997;48.448;8.924;2024-02-14T09:11:09;9.10;99.90
1992;DHT22;997;48.448;8.924;2024-02-14T09:13:35;9.20;99.90
1992;DHT22;997;48.448;8.924;2024-02-14T09:16:01;9.30;99.90
1992;DHT22;997;48.448;8.924;2024-02-14T09:18:27;9.30;99.90
1992;DHT22;997;48.448;8.924;2024-02-14T09:20:53;9.30;99.90
1992;DHT22;997;48.448;8.924;2024-02-14T09:23:19;9.30;99.90
1992;DHT22;997;48.448;8.924;2024-02-14T09:25:46;9.30;99.90
1992;DHT22;997;48.448;8.924;2024-02-14T09:28:18;9.30;99.90
1992;DHT22;997;48.448;8.924;2024-02-14T09:30:44;9.30;99.90
1992;DHT22;997;48.448;8.924;2024-02-14T09:33:10;9.30;99.90
1992;DHT22;997;48.448;8.924;2024-02-14T09:35:37;9.40;99.90
1992;DHT22;997;48.448;8.924;2024-02-14T09:38:05;9.40;99.90
1992;DHT22;997;48.448;8.924;2024-02-14T09:40:32;9.50;99.90
1992;DHT22;997;48.448;8.924;2024-02-14T09:43:03;9.60;99.90
1992;DHT22;997;48.448;8.924;2024-02-14T09:45:31;9.60;99.90
1992;DHT22;997;48.448;8.924;2024-02-14T09:47:59;9.70;99.90
1992;DHT22;997;48.448;8.924;2024-02-14T09:50:26;9.70;99.90
1992;DHT22;997;48.448;8.924;2024-02-14T09:52:56;9.90;99.90
1992;DHT22;997;48.448;8.924;2024-02-14T09:55:23;9.90;99.90
1992;DHT22;997;48.448;8.924;2024-02-14T09:57:50;10.10;99.90
1992;DHT22;997;48.448;8.924;2024-02-14T10:00:16;10.20;99.90
1992;DHT22;997;48.448;8.924;2024-02-14T10:02:42;10.20;99.90
1992;DHT22;997;48.448;8.924;2024-02-14T10:05:08;10.20;99.90
1992;DHT22;997;48.448;8.924;2024-02-14T10:07:43;10.30;99.90
1992;DHT22;997;48.448;8.924;2024-02-14T10:10:10;10.40;99.90
1992;DHT22;997;48.448;8.924;2024-02-14T10:12:36;10.40;99.90
1992;DHT22;997;48.448;8.924;2024-02-14T10:15:02;10.50;99.90
1992;DHT22;997;48.448;8.924;2024-02-14T10:17:30;10.60;99.90
1992;DHT22;997;48.448;8.924;2024-02-14T10:19:59;10.60;99.90
1992;DHT22;997;48.448;8.924;2024-02-14T10:22:32;10.70;99.90
1992;DHT22;997;48.448;8.924;2024-02-14T10:24:59;10.80;99.90
1992;DHT22;997;48.448;8.924;2024-02-14T10:27:25;11.00;99.90
1992;DHT22;997;48.448;8.924;2024-02-14T10:29:51;11.20;99.90
1992;DHT22;997;48.448;8.924;2024-02-14T10:32:17;11.20;99.90
1992;DHT22;997;48.448;8.924;2024-02-14T10:34:43;11.10;99.90
1992;DHT22;997;48.448;8.924;2024-02-14T10:37:14;11.20;99.90
1992;DHT22;997;48.448;8.924;2024-02-14T10:39:41;11.20;99.90
1992;DHT22;997;48.448;8.924;2024-02-14T10:42:07;11.20;99.90
1992;DHT22;997;48.448;8.924;2024-02-14T10:44:35;11.30;99.90
1992;DHT22;997;48.448;8.924;2024-02-14T10:47:02;11.30;99.90
1992;DHT22;997;48.448;8.924;2024-02-14T10:49:33;11.40;99.90
1992;DHT22;997;48.448;8.924;2024-02-14T10:52:01;11.40;99.90
1992;DHT22;997;48.448;8.924;2024-02-14T10:54:35;11.40;99.90
1992;DHT22;997;48.448;8.924;2024-02-14T10:57:05;11.50;99.90
1992;DHT22;997;48.448;8.924;2024-02-14T10:59:33;11.50;99.90
1992;DHT22;997;48.448;8.924;2024-02-14T11:02:00;11.50;99.90
1992;DHT22;997;48.448;8.924;2024-02-14T11:04:26;11.50;99.90
1992;DHT22;997;48.448;8.924;2024-02-14T11:06:53;11.50;99.90
1992;DHT22;997;48.448;8.924;2024-02-14T11:09:36;11.60;99.90
1992;DHT22;997;48.448;8.924;2024-02-14T11:12:03;11.70;99.90
1992;DHT22;997;48.448;8.924;2024-02-14T11:14:32;11.90;99.90
1992;DHT22;997;48.448;8.924;2024-02-14T11:17:01;11.80;99.90
1992;DHT22;997;48.448;8.924;2024-02-14T11:19:34;11.90;99.90
1992;DHT22;997;48.448;8.924;2024-02-14T11:22:11;12.00;99.90
1992;DHT22;997;48.448;8.924;2024-02-14T11:24:39;12.00;99.90
1992;DHT22;997;48.448;8.924;2024-02-14T11:27:10;12.00;99.90
1992;DHT22;997;48.448;8.924;2024-02-14T11:29:39;12.00;99.90
1992;DHT22;997;48.448;8.924;2024-02-14T11:32:06;12.00;99.90
1992;DHT22;997;48.448;8.924;2024-02-14T11:34:35;12.00;99.90
1992;DHT22;997;48.448;8.924;2024-02-14T11:37:02;12.10;99.90
1992;DHT22;997;48.448;8.924;2024-02-14T11:39:32;12.20;99.90
1992;DHT22;997;48.448;8.924;2024-02-14T11:41:58;12.20;99.90
1992;DHT22;997;48.448;8.924;2024-02-14T11:44:25;12.40;99.90
1992;DHT22;997;48.448;8.924;2024-02-14T11:46:51;12.50;99.90
1992;DHT22;997;48.448;8.924;2024-02-14T11:49:18;12.50;99.90
1992;DHT22;997;48.448;8.924;2024-02-14T11:51:44;12.60;99.90
1992;DHT22;997;48.448;8.924;2024-02-14T11:54:10;12.60;99.90
1992;DHT22;997;48.448;8.924;2024-02-14T11:56:37;12.50;99.90
1992;DHT22;997;48.448;8.924;2024-02-14T11:59:07;12.50;99.90
1992;DHT22;997;48.448;8.924;2024-02-14T12:01:37;12.20;99.90
1992;DHT22;997;48.448;8.924;2024-02-14T12:04:05;12.00;99.90
1992;DHT22;997;48.448;8.924;2024-02-14T12:06:34;12.00;99.90
1992;DHT22;997;48.448;8.924;2024-02-14T12:09:01;12.00;99.90
1992;DHT22;997;48.448;8.924;2024-02-14T12:11:31;12.10;99.90
1992;DHT22;997;48.448;8.924;2024-02-14T12:14:01;12.10;99.90
1992;DHT22;997;48.448;8.924;2024-02-14T12:16:28;12.10;99.90
1992;DHT22;997;48.448;8.924;2024-02-14T12:19:13;12.10;99.90
1992;DHT22;997;48.448;8.924;2024-02-14T12:21:42;12.20;99.90
1992;DHT22;997;48.448;8.924;2024-02-14T12:24:14;12.40;99.90
1992;DHT22;997;48.448;8.924;2024-02-14T12:26:41;12.50;99.90
1992;DHT22;997;48.448;8.924;2024-02-14T12:29:10;12.60;99.90
1992;DHT22;997;48.448;8.924;2024-02-14T12:31:36;12.70;99.90
1992;DHT22;997;48.448;8.924;2024-02-14T12:34:04;12.70;99.90
1992;DHT22;997;48.448;8.924;2024-02-14T12:36:33;12.70;99.90
1992;DHT22;997;48.448;8.924;2024-02-14T12:39:00;12.80;99.90
1992;DHT22;997;48.448;8.924;2024-02-14T12:41:28;12.90;99.90
1992;DHT22;997;48.448;8.924;2024-02-14T12:43:59;12.90;99.90
1992;DHT22;997;48.448;8.924;2024-02-14T12:46:25;12.90;99.90
1992;DHT22;997;48.448;8.924;2024-02-14T12:48:51;13.00;99.90
1992;DHT22;997;48.448;8.924;2024-02-14T12:51:17;13.10;99.90
1992;DHT22;997;48.448;8.924;2024-02-14T12:53:44;13.20;99.90
1992;DHT22;997;48.448;8.924;2024-02-14T12:56:10;13.30;99.90
1992;DHT22;997;48.448;8.924;2024-02-14T12:58:36;13.30;99.90
1992;DHT22;997;48.448;8.924;2024-02-14T13:01:02;13.30;99.90
1992;DHT22;997;48.448;8.924;2024-02-14T13:03:35;13.30;99.90
1992;DHT22;997;48.448;8.924;2024-02-14T13:06:01;13.30;99.90
1992;DHT22;997;48.448;8.924;2024-02-14T13:08:27;13.40;99.90
1992;DHT22;997;48.448;8.924;2024-02-14T13:10:53;13.30;99.90
1992;DHT22;997;48.448;8.924;2024-02-14T13:13:19;13.40;99.90
1992;DHT22;997;48.448;8.924;2024-02-14T13:15:44;13.50;99.90
1992;DHT22;997;48.448;8.924;2024-02-14T13:18:10;13.50;99.90
1992;DHT22;997;48.448;8.924;2024-02-14T13:20:37;13.50;99.90
1992;DHT22;997;48.448;8.924;2024-02-14T13:23:03;13.60;99.90
1992;DHT22;997;48.448;8.924;2024-02-14T13:25:29;13.70;99.90
1992;DHT22;997;48.448;8.924;2024-02-14T13:27:55;13.70;99.90
1992;DHT22;997;48.448;8.924;2024-02-14T13:30:21;13.70;99.90
1992;DHT22;997;48.448;8.924;2024-02-14T13:32:48;13.80;99.90
1992;DHT22;997;48.448;8.924;2024-02-14T13:35:14;13.90;99.90
1992;DHT22;997;48.448;8.924;2024-02-14T13:37:40;13.90;99.90
1992;DHT22;997;48.448;8.924;2024-02-14T13:40:07;13.90;99.90
1992;DHT22;997;48.448;8.924;2024-02-14T13:42:38;13.90;99.90
1992;DHT22;997;48.448;8.924;2024-02-14T13:45:06;13.80;99.90
1992;DHT22;997;48.448;8.924;2024-02-14T13:47:38;13.70;99.90
1992;DHT22;997;48.448;8.924;2024-02-14T13:50:08;13.70;99.90
1992;DHT22;997;48.448;8.924;2024-02-14T13:52:35;13.70;99.90
1992;DHT22;997;48.448;8.924;2024-02-14T13:55:02;13.70;99.90
1992;DHT22;997;48.448;8.924;2024-02-14T13:57:28;13.60;99.90
1992;DHT22;997;48.448;8.924;2024-02-14T13:59:55;13.60;99.90
1992;DHT22;997;48.448;8.924;2024-02-14T14:02:21;13.70;99.90
1992;DHT22;997;48.448;8.924;2024-02-14T14:04:48;13.70;99.90
1992;DHT22;997;48.448;8.924;2024-02-14T14:07:14;13.80;99.90
1992;DHT22;997;48.448;8.924;2024-02-14T14:09:41;13.80;99.90
1992;DHT22;997;48.448;8.924;2024-02-14T14:12:06;13.80;99.90
1992;DHT22;997;48.448;8.924;2024-02-14T14:14:32;13.80;99.90
1992;DHT22;997;48.448;8.924;2024-02-14T14:16:58;13.80;99.90
1992;DHT22;997;48.448;8.924;2024-02-14T14:19:23;13.80;99.90
1992;DHT22;997;48.448;8.924;2024-02-14T14:21:49;13.60;99.90
1992;DHT22;997;48.448;8.924;2024-02-14T14:24:15;13.50;99.90
1992;DHT22;997;48.448;8.924;2024-02-14T14:26:41;13.50;99.90
1992;DHT22;997;48.448;8.924;2024-02-14T14:29:06;13.40;99.90
1992;DHT22;997;48.448;8.924;2024-02-14T14:31:34;13.50;99.90
1992;DHT22;997;48.448;8.924;2024-02-14T14:34:01;13.50;99.90
1992;DHT22;997;48.448;8.924;2024-02-14T14:36:28;13.60;99.90
1992;DHT22;997;48.448;8.924;2024-02-14T14:38:53;13.80;99.90
1992;DHT22;997;48.448;8.924;2024-02-14T14:41:22;13.90;99.90
1992;DHT22;997;48.448;8.924;2024-02-14T14:43:48;13.90;99.90
1992;DHT22;997;48.448;8.924;2024-02-14T14:46:15;14.00;99.90
1992;DHT22;997;48.448;8.924;2024-02-14T14:48:41;13.90;99.90
1992;DHT22;997;48.448;8.924;2024-02-14T14:51:06;13.90;99.90
1992;DHT22;997;48.448;8.924;2024-02-14T14:53:33;13.90;99.90
1992;DHT22;997;48.448;8.924;2024-02-14T14:56:00;14.00;99.90
1992;DHT22;997;48.448;8.924;2024-02-14T14:58:28;14.10;99.90
1992;DHT22;997;48.448;8.924;2024-02-14T15:00:58;14.10;99.90
1992;DHT22;997;48.448;8.924;2024-02-14T15:03:25;14.00;99.90
1992;DHT22;997;48.448;8.924;2024-02-14T15:05:51;14.00;99.90
1992;DHT22;997;48.448;8.924;2024-02-14T15:08:18;14.10;99.90
1992;DHT22;997;48.448;8.924;2024-02-14T15:10:48;14.10;99.90
1992;DHT22;997;48.448;8.924;2024-02-14T15:13:16;14.00;99.90
1992;DHT22;997;48.448;8.924;2024-02-14T15:15:41;14.10;99.90
1992;DHT22;997;48.448;8.924;2024-02-14T15:18:08;14.10;99.90
1992;DHT22;997;48.448;8.924;2024-02-14T15:20:33;14.20;99.90
1992;DHT22;997;48.448;8.924;2024-02-14T15:23:02;14.20;99.90
1992;DHT22;997;48.448;8.924;2024-02-14T15:25:28;14.50;99.90
1992;DHT22;997;48.448;8.924;2024-02-14T15:27:54;14.60;99.90
1992;DHT22;997;48.448;8.924;2024-02-14T15:30:23;14.70;99.90
1992;DHT22;997;48.448;8.924;2024-02-14T15:33:08;14.80;99.90
1992;DHT22;997;48.448;8.924;2024-02-14T15:35:50;14.80;99.90
1992;DHT22;997;48.448;8.924;2024-02-14T15:38:16;14.80;99.90
1992;DHT22;997;48.448;8.924;2024-02-14T15:40:45;14.60;99.90
1992;DHT22;997;48.448;8.924;2024-02-14T15:43:12;14.60;99.90
1992;DHT22;997;48.448;8.924;2024-02-14T15:45:37;14.50;99.90
1992;DHT22;997;48.448;8.924;2024-02-14T15:48:04;14.50;99.90
1992;DHT22;997;48.448;8.924;2024-02-14T15:50:29;14.20;99.90
1992;DHT22;997;48.448;8.924;2024-02-14T15:52:55;14.20;99.90
1992;DHT22;997;48.448;8.924;2024-02-14T15:55:21;14.10;99.90
1992;DHT22;997;48.448;8.924;2024-02-14T15:57:46;14.10;99.90
1992;DHT22;997;48.448;8.924;2024-02-14T16:00:14;14.10;99.90
1992;DHT22;997;48.448;8.924;2024-02-14T16:02:40;14.30;99.90
1992;DHT22;997;48.448;8.924;2024-02-14T16:05:07;14.20;99.90
1992;DHT22;997;48.448;8.924;2024-02-14T16:07:37;14.20;99.90
1992;DHT22;997;48.448;8.924;2024-02-14T16:10:03;14.10;99.90
1992;DHT22;997;48.448;8.924;2024-02-14T16:12:30;14.20;99.90
1992;DHT22;997;48.448;8.924;2024-02-14T16:14:56;14.20;99.90
1992;DHT22;997;48.448;8.924;2024-02-14T16:17:22;14.10;99.90
1992;DHT22;997;48.448;8.924;2024-02-14T16:19:48;14.00;99.90
1992;DHT22;997;48.448;8.924;2024-02-14T16:22:14;14.00;99.90
1992;DHT22;997;48.448;8.924;2024-02-14T16:24:40;13.90;99.90